createdAt,value
2022-08-16T00:01:34.261Z,99975.14
2022-08-16T00:04:10.266Z,99975.89
2022-08-16T00:06:41.161Z,99975.04
2022-08-16T00:09:14.252Z,99976.10
2022-08-16T00:11:46.449Z,99974.99
2022-08-16T00:14:29.118Z,99966.33
2022-08-16T00:17:15.511Z,99963.63
2022-08-16T00:19:53.768Z,99961.55
2022-08-16T00:22:27.914Z,99962.38
2022-08-16T00:24:57.092Z,99968.84
2022-08-16T00:27:25.689Z,99971.80
2022-08-16T00:30:19.144Z,99974.23
2022-08-16T00:32:53.917Z,99974.33
2022-08-16T00:35:36.012Z,99975.20
2022-08-16T00:38:40.866Z,99974.70
2022-08-16T00:41:00.878Z,99973.05
2022-08-16T00:43:43.275Z,99977.14
2022-08-16T00:46:37.612Z,99980.66
2022-08-16T00:49:22.766Z,99983.73
2022-08-16T00:51:55.195Z,99988.05
2022-08-16T00:54:32.946Z,99988.70
2022-08-16T00:57:04.248Z,99994.09
2022-08-16T00:59:40.876Z,99990.29
2022-08-16T01:02:31.619Z,99992.81
2022-08-16T01:05:10.980Z,99986.21
2022-08-16T01:07:52.159Z,99995.27
2022-08-16T01:10:32.214Z,99992.08
2022-08-16T01:13:15.845Z,99995.53
2022-08-16T01:15:58.088Z,99995.70
2022-08-16T01:18:52.087Z,99993.23
2022-08-16T01:21:33.857Z,99990.83
2022-08-16T01:24:51.836Z,99989.63
2022-08-16T01:27:53.823Z,99990.06
2022-08-16T01:30:40.162Z,99987.73
2022-08-16T01:33:22.435Z,99981.58
2022-08-16T01:36:01.215Z,99989.43
2022-08-16T01:38:36.052Z,99991.34
2022-08-16T01:41:19.212Z,99990.39
2022-08-16T01:43:54.688Z,99987.54
2022-08-16T01:46:39.682Z,99989.70
2022-08-16T01:49:45.414Z,99982.42
2022-08-16T01:52:29.221Z,99988.14
2022-08-16T01:55:24.440Z,99987.13
2022-08-16T01:57:56.666Z,99985.32
2022-08-16T02:00:29.836Z,99983.91
2022-08-16T02:03:03.295Z,99985.21
2022-08-16T02:05:32.683Z,99982.67
2022-08-16T02:08:06.787Z,99984.41
2022-08-16T02:10:38.757Z,99984.67
2022-08-16T02:13:09.706Z,99988.16
2022-08-16T02:15:43.711Z,99987.15
2022-08-16T02:18:18.653Z,99979.05
2022-08-16T02:20:53.589Z,99977.52
2022-08-16T02:23:24.513Z,99981.23
2022-08-16T02:25:53.970Z,99991.09
2022-08-16T02:28:26.748Z,99985.48
2022-08-16T02:31:04.287Z,99982.27
2022-08-16T02:33:44.563Z,99982.80
2022-08-16T02:36:47.778Z,99980.89
2022-08-16T02:39:22.954Z,99978.42
2022-08-16T02:41:53.682Z,99976.83
2022-08-16T02:44:27.044Z,99977.91
2022-08-16T02:46:57.974Z,99984.46
2022-08-16T02:49:58.100Z,99986.70
2022-08-16T02:52:24.850Z,99979.45
2022-08-16T02:55:10.176Z,99980.92
2022-08-16T02:57:54.087Z,99979.34
2022-08-16T03:00:33.548Z,99979.11
2022-08-16T03:03:10.360Z,99977.27
2022-08-16T03:05:54.240Z,99978.05
2022-08-16T03:08:51.345Z,99980.61
2022-08-16T03:11:35.455Z,99980.29
2022-08-16T03:14:07.524Z,99988.92
2022-08-16T03:16:59.093Z,99993.19
2022-08-16T03:20:00.266Z,99997.65
2022-08-16T03:22:45.448Z,100002.77
2022-08-16T03:25:43.216Z,99999.32
2022-08-16T03:28:17.168Z,99992.10
2022-08-16T03:30:51.047Z,99985.35
2022-08-16T03:33:21.643Z,99989.16
2022-08-16T03:35:59.643Z,99996.42
2022-08-16T03:38:50.930Z,100005.24
2022-08-16T03:41:24.427Z,100008.44
2022-08-16T03:43:59.256Z,100007.29
2022-08-16T03:46:44.880Z,100013.34
2022-08-16T03:49:23.456Z,100012.58
2022-08-16T03:52:08.795Z,100020.86
2022-08-16T03:54:38.657Z,100029.45
2022-08-16T03:57:23.445Z,100033.04
2022-08-16T03:59:53.300Z,100036.13
2022-08-16T04:02:31.500Z,100045.12
2022-08-16T04:05:04.180Z,100043.20
2022-08-16T04:07:33.827Z,100049.98
2022-08-16T04:10:35.616Z,100052.27
2022-08-16T04:13:00.655Z,100058.80
2022-08-16T04:15:34.794Z,100068.06
2022-08-16T04:18:12.961Z,100068.52
2022-08-16T04:20:44.007Z,100068.39
2022-08-16T04:23:13.277Z,100072.77
2022-08-16T04:25:47.052Z,100078.91
2022-08-16T04:28:51.663Z,100080.71
2022-08-16T04:31:10.671Z,100087.48
2022-08-16T04:33:51.293Z,100084.73
2022-08-16T04:36:23.555Z,100086.93
2022-08-16T04:38:54.197Z,100090.05
2022-08-16T04:41:32.829Z,100092.10
2022-08-16T04:44:32.356Z,100093.11
2022-08-16T04:47:02.736Z,100094.78
2022-08-16T04:49:38.466Z,100088.02
2022-08-16T04:52:33.719Z,100100.52
2022-08-16T04:55:11.711Z,100104.99
2022-08-16T04:57:45.445Z,100100.52
2022-08-16T05:00:32.717Z,100107.64
2022-08-16T05:03:13.736Z,100109.70
2022-08-16T05:05:59.037Z,100106.08
2022-08-16T05:08:34.726Z,100112.55
2022-08-16T05:11:16.794Z,100109.74
2022-08-16T05:13:48.469Z,100111.95
2022-08-16T05:16:30.032Z,100113.59
2022-08-16T05:19:13.195Z,100108.48
2022-08-16T05:22:04.936Z,100107.61
2022-08-16T05:24:36.371Z,100109.70
2022-08-16T05:27:11.577Z,100109.16
2022-08-16T05:30:00.781Z,100106.83
2022-08-16T05:32:32.786Z,100110.83
2022-08-16T05:35:11.449Z,100108.05
2022-08-16T05:37:45.829Z,100107.89
2022-08-16T05:40:16.800Z,100107.30
2022-08-16T05:42:49.387Z,100112.98
2022-08-16T05:45:22.111Z,100112.65
2022-08-16T05:47:59.956Z,100114.69
2022-08-16T05:50:52.934Z,100118.76
2022-08-16T05:53:24.402Z,100119.47
2022-08-16T05:56:19.301Z,100120.39
2022-08-16T05:58:49.378Z,100120.59
2022-08-16T06:01:21.640Z,100115.82
2022-08-16T06:03:52.698Z,100114.14
2022-08-16T06:06:30.305Z,100117.12
2022-08-16T06:09:00.712Z,100115.06
2022-08-16T06:11:30.556Z,100119.83
2022-08-16T06:14:02.723Z,100119.62
2022-08-16T06:16:38.657Z,100128.23
2022-08-16T06:19:07.788Z,100130.21
2022-08-16T06:21:41.869Z,100132.64
2022-08-16T06:24:54.190Z,100135.13
2022-08-16T06:26:59.803Z,100133.62
2022-08-16T06:29:32.975Z,100128.27
2022-08-16T06:32:04.292Z,100130.81
2022-08-16T06:34:57.277Z,100132.77
2022-08-16T06:37:23.123Z,100138.11
2022-08-16T06:39:52.664Z,100140.42
2022-08-16T06:42:47.144Z,100142.73
2022-08-16T06:45:32.110Z,100148.22
2022-08-16T06:48:14.087Z,100152.76
2022-08-16T06:50:50.813Z,100156.84
2022-08-16T06:53:21.319Z,100154.89
2022-08-16T06:56:06.429Z,100150.57
2022-08-16T06:58:53.958Z,100155.36
2022-08-16T07:01:43.051Z,100155.09
2022-08-16T07:04:32.966Z,100154.20
2022-08-16T07:07:09.814Z,100158.06
2022-08-16T07:09:40.078Z,100155.32
2022-08-16T07:12:10.661Z,100161.64
2022-08-16T07:14:42.597Z,100164.48
2022-08-16T07:17:16.263Z,100168.72
2022-08-16T07:20:03.813Z,100168.90
2022-08-16T07:22:50.802Z,100169.46
2022-08-16T07:25:25.305Z,100167.27
2022-08-16T07:27:53.968Z,100168.40
2022-08-16T07:30:39.059Z,100171.64
2022-08-16T07:33:51.300Z,100169.06
2022-08-16T07:36:13.328Z,100171.44
2022-08-16T07:38:50.812Z,100167.60
2022-08-16T07:41:20.578Z,100171.87
2022-08-16T07:43:54.494Z,100169.91
2022-08-16T07:46:39.589Z,100169.63
2022-08-16T07:49:15.296Z,100165.63
2022-08-16T07:51:47.065Z,100164.23
2022-08-16T07:54:21.238Z,100162.23
2022-08-16T07:57:04.783Z,100161.82
2022-08-16T07:59:45.569Z,100162.70
2022-08-16T08:02:20.090Z,100168.05
2022-08-16T08:04:57.635Z,100165.61
2022-08-16T08:07:32.543Z,100169.68
2022-08-16T08:10:11.029Z,100173.40
2022-08-16T08:12:44.278Z,100175.74
2022-08-16T08:15:25.190Z,100179.85
2022-08-16T08:17:55.450Z,100178.64
2022-08-16T08:20:34.573Z,100178.58
2022-08-16T08:23:09.001Z,100183.99
2022-08-16T08:25:54.279Z,100182.92
2022-08-16T08:28:29.361Z,100189.70
2022-08-16T08:31:04.302Z,100186.14
2022-08-16T08:33:38.013Z,100190.92
2022-08-16T08:36:24.207Z,100190.17
2022-08-16T08:39:12.742Z,100192.96
2022-08-16T08:41:46.461Z,100193.18
2022-08-16T08:44:29.061Z,100192.77
2022-08-16T08:47:12.176Z,100198.50
2022-08-16T08:49:46.084Z,100204.17
2022-08-16T08:52:35.452Z,100209.89
2022-08-16T08:55:10.282Z,100212.98
2022-08-16T08:57:45.948Z,100210.34
2022-08-16T09:00:26.967Z,100213.86
2022-08-16T09:03:04.546Z,100220.58
2022-08-16T09:05:37.233Z,100218.83
2022-08-16T09:08:11.780Z,100224.56
2022-08-16T09:11:02.035Z,100223.71
2022-08-16T09:13:33.758Z,100228.62
2022-08-16T09:16:04.622Z,100227.84
2022-08-16T09:18:35.792Z,100226.20
2022-08-16T09:21:09.565Z,100232.05
2022-08-16T09:23:40.297Z,100232.29
2022-08-16T09:26:44.335Z,100236.81
2022-08-16T09:29:14.815Z,100236.49
2022-08-16T09:31:45.164Z,100234.43
2022-08-16T09:34:19.237Z,100230.52
2022-08-16T09:36:48.537Z,100238.19
2022-08-16T09:39:23.175Z,100235.92
2022-08-16T09:41:59.628Z,100233.30
2022-08-16T09:45:12.780Z,100235.07
2022-08-16T09:47:23.429Z,100237.80
2022-08-16T09:49:52.550Z,100235.95
2022-08-16T09:52:23.956Z,100235.85
2022-08-16T09:54:56.613Z,100236.42
2022-08-16T09:57:25.836Z,100232.55
2022-08-16T10:00:42.568Z,100230.94
2022-08-16T10:02:59.191Z,100230.79
2022-08-16T10:05:29.904Z,100228.58
2022-08-16T10:08:26.212Z,100224.96
2022-08-16T10:11:09.698Z,100229.35
2022-08-16T10:13:40.720Z,100232.36
2022-08-16T10:19:01.791Z,100235.57
2022-08-16T10:21:32.482Z,100233.58
2022-08-16T10:24:03.977Z,100235.11
2022-08-16T10:27:20.110Z,100235.78
2022-08-16T10:29:24.283Z,100233.74
2022-08-16T10:32:12.922Z,100233.32
2022-08-16T10:34:52.334Z,100231.73
2022-08-16T10:37:32.162Z,100226.53
2022-08-16T10:40:10.848Z,100229.80
2022-08-16T10:43:00.552Z,100227.96
2022-08-16T10:45:36.939Z,100231.48
2022-08-16T10:48:23.976Z,100229.92
2022-08-16T10:50:59.146Z,100228.99
2022-08-16T10:53:33.114Z,100228.09
2022-08-16T10:56:49.037Z,100226.20
2022-08-16T10:58:57.379Z,100226.98
2022-08-16T11:01:42.977Z,100227.33
2022-08-16T11:07:07.867Z,100229.58
2022-08-16T11:09:44.147Z,100223.99
2022-08-16T11:12:15.281Z,100228.75
2022-08-16T11:17:32.714Z,100228.20
2022-08-16T11:20:41.915Z,100230.72
2022-08-16T11:22:52.986Z,100227.66
2022-08-16T11:29:12.339Z,100233.33
2022-08-16T11:31:03.460Z,100224.96
2022-08-16T11:36:27.916Z,100224.80
2022-08-16T11:39:00.820Z,100225.83
2022-08-16T11:41:34.758Z,100225.51
2022-08-16T11:44:03.487Z,100223.28
2022-08-16T11:46:34.458Z,100217.91
2022-08-16T11:49:15.362Z,100220.33
2022-08-16T11:51:45.808Z,100214.82
2022-08-16T11:54:21.491Z,100210.57
2022-08-16T11:56:57.422Z,100207.62
2022-08-16T11:59:30.007Z,100207.17
2022-08-16T12:02:11.549Z,100203.13
2022-08-16T12:04:51.674Z,100202.73
2022-08-16T12:07:23.811Z,100202.21
2022-08-16T12:09:54.814Z,100200.42
2022-08-16T12:12:24.473Z,100197.95
2022-08-16T12:15:00.071Z,100194.00
2022-08-16T12:17:32.998Z,100196.21
2022-08-16T12:20:07.519Z,100195.83
2022-08-16T12:22:38.278Z,100189.84
2022-08-16T12:25:11.839Z,100191.64
2022-08-16T12:27:41.441Z,100188.61
2022-08-16T12:30:26.420Z,100189.38
2022-08-16T12:33:03.158Z,100190.92
2022-08-16T12:35:35.559Z,100190.52
2022-08-16T12:38:38.294Z,100190.94
2022-08-16T12:40:57.321Z,100190.33
2022-08-16T12:43:26.758Z,100193.73
2022-08-16T12:46:01.932Z,100195.30
2022-08-16T12:48:52.561Z,100194.10
2022-08-16T12:51:32.828Z,100187.98
2022-08-16T12:54:16.305Z,100189.35
2022-08-16T12:56:45.583Z,100188.14
2022-08-16T12:59:20.254Z,100181.81
2022-08-16T13:01:55.282Z,100179.45
2022-08-16T13:04:33.089Z,100176.86
2022-08-16T13:07:05.043Z,100176.41
2022-08-16T13:09:48.451Z,100175.50
2022-08-16T13:12:24.987Z,100176.79
2022-08-16T13:14:56.561Z,100174.48
2022-08-16T13:17:29.777Z,100178.95
2022-08-16T13:20:07.765Z,100182.77
2022-08-16T13:22:42.810Z,100176.50
2022-08-16T13:25:21.233Z,100172.45
2022-08-16T13:28:02.792Z,100170.00
2022-08-16T13:30:47.463Z,100166.45
2022-08-16T13:33:30.459Z,100166.77
2022-08-16T13:36:01.527Z,100166.48
2022-08-16T13:38:37.076Z,100164.69
2022-08-16T13:41:10.990Z,100167.88
2022-08-16T13:43:43.155Z,100165.63
2022-08-16T13:46:12.553Z,100158.17
2022-08-16T13:48:43.986Z,100159.23
2022-08-16T13:51:18.651Z,100165.84
2022-08-16T13:53:59.734Z,100163.44
2022-08-16T13:56:39.561Z,100164.15
2022-08-16T13:59:20.401Z,100168.54
2022-08-16T14:01:56.701Z,100165.92
2022-08-16T14:04:32.529Z,100162.15
2022-08-16T14:07:03.907Z,100159.83
2022-08-16T14:09:36.956Z,100155.94
2022-08-16T14:12:20.814Z,100153.27
2022-08-16T14:14:57.232Z,100148.35
2022-08-16T14:17:29.459Z,100150.05
2022-08-16T14:20:00.618Z,100151.52
2022-08-16T14:22:42.370Z,100154.33
2022-08-16T14:25:20.920Z,100156.32
2022-08-16T14:27:55.909Z,100159.48
2022-08-16T14:30:27.752Z,100160.58
2022-08-16T14:32:58.650Z,100160.23
2022-08-16T14:35:48.591Z,100162.25
2022-08-16T14:38:24.027Z,100162.00
2022-08-16T14:40:55.283Z,100162.48
2022-08-16T14:43:29.878Z,100158.20
2022-08-16T14:46:02.630Z,100157.34
2022-08-16T14:48:39.614Z,100161.23
2022-08-16T14:51:08.129Z,100157.13
2022-08-16T14:53:45.227Z,100159.98
2022-08-16T14:56:38.593Z,100154.77
2022-08-16T14:59:09.994Z,100155.55
2022-08-16T15:01:59.488Z,100152.92
2022-08-16T15:04:40.093Z,100152.38
2022-08-16T15:07:23.031Z,100152.87
2022-08-16T15:09:59.906Z,100156.92
2022-08-16T15:12:33.736Z,100160.11
2022-08-16T15:15:12.570Z,100159.58
2022-08-16T15:17:56.043Z,100159.44
2022-08-16T15:20:30.789Z,100155.47
2022-08-16T15:23:02.398Z,100156.11
2022-08-16T15:25:30.965Z,100157.69
2022-08-16T15:28:05.307Z,100156.86
2022-08-16T15:30:57.214Z,100156.68
2022-08-16T15:33:27.738Z,100161.08
2022-08-16T15:35:58.537Z,100163.84
2022-08-16T15:38:55.266Z,100156.53
2022-08-16T15:41:52.002Z,100164.83
2022-08-16T15:44:26.356Z,100161.88
2022-08-16T15:47:00.032Z,100166.80
2022-08-16T15:49:39.030Z,100171.10
2022-08-16T15:52:29.275Z,100176.91
2022-08-16T15:55:23.825Z,100174.81
2022-08-16T15:58:35.580Z,100181.02
2022-08-16T16:00:53.607Z,100188.63
2022-08-16T16:03:26.200Z,100185.48
2022-08-16T16:06:01.878Z,100186.36
2022-08-16T16:08:32.871Z,100187.18
2022-08-16T16:11:06.256Z,100186.61
2022-08-16T16:13:37.317Z,100185.15
2022-08-16T16:16:16.661Z,100186.35
2022-08-16T16:18:51.213Z,100182.69
2022-08-16T16:21:22.473Z,100182.94
2022-08-16T16:23:57.954Z,100181.02
2022-08-16T16:26:31.586Z,100176.12
2022-08-16T16:29:14.576Z,100177.30
2022-08-16T16:31:59.244Z,100180.79
2022-08-16T16:34:35.282Z,100178.82
2022-08-16T16:37:09.449Z,100180.74
2022-08-16T16:39:42.541Z,100184.21
2022-08-16T16:42:29.185Z,100185.08
2022-08-16T16:45:04.058Z,100183.10
2022-08-16T16:47:41.664Z,100182.90
2022-08-16T16:50:17.826Z,100186.36
2022-08-16T16:52:48.518Z,100189.45
2022-08-16T16:55:17.550Z,100188.16
2022-08-16T16:58:17.983Z,100185.23
2022-08-16T17:01:02.322Z,100183.30
2022-08-16T17:03:32.815Z,100184.56
2022-08-16T17:06:10.385Z,100185.97
2022-08-16T17:08:42.268Z,100190.06
2022-08-16T17:11:14.077Z,100190.08
2022-08-16T17:13:46.793Z,100191.84
2022-08-16T17:16:18.792Z,100198.60
2022-08-16T17:19:17.024Z,100199.24
2022-08-16T17:24:39.672Z,100198.09
2022-08-16T17:27:11.562Z,100197.17
2022-08-16T17:29:51.376Z,100198.48
2022-08-16T17:32:33.816Z,100204.07
2022-08-16T17:35:18.422Z,100201.91
2022-08-16T17:37:51.393Z,100200.36
2022-08-16T17:39:28.262Z,100197.52
2022-08-16T17:40:40.504Z,100200.48
2022-08-16T17:43:19.364Z,100197.05
2022-08-16T17:45:51.416Z,100199.73
2022-08-16T17:48:23.399Z,100202.15
2022-08-16T17:50:55.345Z,100206.10
2022-08-16T17:53:26.304Z,100210.74
2022-08-16T17:55:58.353Z,100218.98
2022-08-16T17:58:28.981Z,100213.73
2022-08-16T18:01:01.028Z,100216.08
2022-08-16T18:04:06.962Z,100215.51
2022-08-16T18:06:28.426Z,100220.23
2022-08-16T18:09:03.522Z,100220.98
2022-08-16T18:11:44.790Z,100223.51
2022-08-16T18:14:19.948Z,100230.95
2022-08-16T18:17:10.553Z,100233.35
2022-08-16T18:19:40.918Z,100236.10
2022-08-16T18:22:18.898Z,100239.64
2022-08-16T18:24:52.218Z,100239.38
2022-08-16T18:27:25.393Z,100242.59
2022-08-16T18:29:58.085Z,100243.77
2022-08-16T18:32:29.783Z,100245.02
2022-08-16T18:35:00.124Z,100250.28
2022-08-16T18:37:30.827Z,100250.77
2022-08-16T18:40:04.260Z,100249.43
2022-08-16T18:42:36.737Z,100255.55
2022-08-16T18:45:07.822Z,100256.73
2022-08-16T18:47:38.142Z,100260.80
2022-08-16T18:50:10.506Z,100262.20
2022-08-16T18:52:47.661Z,100262.08
2022-08-16T18:55:18.368Z,100265.27
2022-08-16T18:57:49.109Z,100263.46
2022-08-16T19:00:21.965Z,100266.95
2022-08-16T19:02:58.060Z,100260.89
2022-08-16T19:05:36.132Z,100257.09
2022-08-16T19:08:08.542Z,100259.85
2022-08-16T19:10:41.543Z,100262.85
2022-08-16T19:13:15.731Z,100268.02
2022-08-16T19:15:48.550Z,100270.76
2022-08-16T19:18:19.102Z,100271.59
2022-08-16T19:20:49.907Z,100269.88
2022-08-16T19:23:25.039Z,100269.61
2022-08-16T19:26:02.315Z,100272.98
2022-08-16T19:28:51.910Z,100275.08
2022-08-16T19:31:33.508Z,100272.89
2022-08-16T19:34:04.813Z,100275.20
2022-08-16T19:36:39.920Z,100277.34
2022-08-16T19:39:15.016Z,100283.98
2022-08-16T19:41:53.694Z,100289.70
2022-08-16T19:44:26.375Z,100291.88
2022-08-16T19:46:57.133Z,100297.14
2022-08-16T19:49:27.945Z,100304.96
2022-08-16T19:51:58.395Z,100306.66
2022-08-16T19:54:28.845Z,100302.45
2022-08-16T19:57:12.645Z,100304.80
2022-08-16T19:59:44.198Z,100306.37
2022-08-16T20:02:36.420Z,100306.73
2022-08-16T20:05:09.485Z,100305.55
2022-08-16T20:07:39.953Z,100306.71
2022-08-16T20:10:13.800Z,100307.50
2022-08-16T20:13:01.654Z,100308.13
2022-08-16T20:15:33.125Z,100308.04
2022-08-16T20:18:17.237Z,100311.49
2022-08-16T20:20:57.590Z,100314.42
2022-08-16T20:23:29.234Z,100309.92
2022-08-16T20:25:59.222Z,100315.19
2022-08-16T20:28:44.066Z,100318.09
2022-08-16T20:31:21.390Z,100317.98
2022-08-16T20:33:52.850Z,100319.05
2022-08-16T20:36:22.637Z,100324.39
2022-08-16T20:38:53.991Z,100321.52
2022-08-16T20:41:23.086Z,100322.20
2022-08-16T20:43:55.042Z,100320.08
2022-08-16T20:46:26.414Z,100320.23
2022-08-16T20:48:55.271Z,100322.48
2022-08-16T20:51:24.621Z,100323.30
2022-08-16T20:53:54.907Z,100324.58
2022-08-16T20:56:23.840Z,100325.38
2022-08-16T20:58:53.826Z,100325.70
2022-08-16T21:01:23.171Z,100334.30
2022-08-16T21:03:53.108Z,100336.42
2022-08-16T21:06:21.648Z,100329.70
2022-08-16T21:08:54.297Z,100329.36
2022-08-16T21:11:25.555Z,100326.80
2022-08-16T21:13:55.447Z,100328.11
2022-08-16T21:16:32.733Z,100329.25
2022-08-16T21:19:03.711Z,100329.08
2022-08-16T21:21:34.851Z,100318.12
2022-08-16T21:24:05.485Z,100334.19
2022-08-16T21:26:39.331Z,100339.10
2022-08-16T21:29:15.547Z,100332.69
2022-08-16T21:31:49.043Z,100332.13
2022-08-16T21:34:19.176Z,100338.33
2022-08-16T21:36:49.305Z,100335.39
2022-08-16T21:39:19.831Z,100336.40
2022-08-16T21:41:49.483Z,100336.67
2022-08-16T21:44:20.314Z,100340.28
2022-08-16T21:46:51.399Z,100339.20
2022-08-16T21:49:20.453Z,100341.12
2022-08-16T21:51:49.563Z,100342.61
2022-08-16T21:54:20.426Z,100340.70
2022-08-16T21:56:49.641Z,100342.11
2022-08-16T21:59:20.455Z,100345.96
2022-08-16T22:01:49.732Z,100348.00
2022-08-16T22:04:37.515Z,100348.71
2022-08-16T22:07:11.638Z,100347.39
2022-08-16T22:09:45.578Z,100348.77
2022-08-16T22:12:24.024Z,100348.08
2022-08-16T22:14:55.286Z,100349.06
2022-08-16T22:17:27.058Z,100351.96
2022-08-16T22:19:57.606Z,100352.67
2022-08-16T22:22:35.195Z,100352.84
2022-08-16T22:25:09.750Z,100352.80
2022-08-16T22:27:40.808Z,100354.65
2022-08-16T22:30:16.405Z,100359.74
2022-08-16T22:32:49.294Z,100367.63
2022-08-16T22:35:21.963Z,100362.59
2022-08-16T22:38:50.620Z,100359.25
2022-08-16T22:40:44.112Z,100364.33
2022-08-16T22:43:16.959Z,100368.70
2022-08-16T22:45:48.333Z,100365.62
2022-08-16T22:48:22.430Z,100366.02
2022-08-16T22:50:55.959Z,100362.88
2022-08-16T22:53:30.474Z,100358.34
2022-08-16T22:56:01.819Z,100358.02
2022-08-16T22:58:36.156Z,100361.64
2022-08-16T23:01:13.004Z,100363.06
2022-08-16T23:03:45.440Z,100363.08
2022-08-16T23:06:17.468Z,100359.55
2022-08-16T23:08:48.500Z,100368.11
2022-08-16T23:11:23.567Z,100365.75
2022-08-16T23:13:56.837Z,100354.31
2022-08-16T23:16:33.604Z,100358.85
2022-08-16T23:19:11.505Z,100351.96
2022-08-16T23:21:48.346Z,100352.92
2022-08-16T23:24:21.476Z,100349.52
2022-08-16T23:26:53.502Z,100353.54
2022-08-16T23:29:26.777Z,100351.46
2022-08-16T23:32:15.324Z,100351.13
2022-08-16T23:34:46.408Z,100354.69
2022-08-16T23:37:19.011Z,100351.26
2022-08-16T23:39:50.387Z,100355.48
2022-08-16T23:42:52.192Z,100351.17
2022-08-16T23:45:33.780Z,100350.35
2022-08-16T23:48:07.113Z,100353.37
2022-08-16T23:50:43.400Z,100352.92
2022-08-16T23:53:20.367Z,100354.85
2022-08-16T23:55:54.450Z,100354.02
2022-08-16T23:58:26.162Z,100350.66
